sensor_id;sensor_type;location;lat;lon;timestamp;pressure;altitude;pressure_sealevel;temperature;humidity
37764;BME280;23602;51.084;7.090;2023-05-19T00:00:41;100984.28;;;9.47;100.00
37764;BME280;23602;51.084;7.090;2023-05-19T00:03:08;100977.59;;;9.43;100.00
37764;BME280;23602;51.084;7.090;2023-05-19T00:05:35;100982.50;;;9.40;100.00
37764;BME280;23602;51.084;7.090;2023-05-19T00:08:04;100981.66;;;9.39;100.00
37764;BME280;23602;51.084;7.090;2023-05-19T00:10:30;100972.97;;;9.37;100.00
37764;BME280;23602;51.084;7.090;2023-05-19T00:12:57;100981.06;;;9.29;100.00
37764;BME280;23602;51.084;7.090;2023-05-19T00:15:22;100973.13;;;9.36;100.00
37764;BME280;23602;51.084;7.090;2023-05-19T00:17:48;100972.69;;;9.32;100.00
37764;BME280;23602;51.084;7.090;2023-05-19T00:20:13;100971.63;;;9.33;100.00
37764;BME280;23602;51.084;7.090;2023-05-19T00:22:39;100971.84;;;9.32;100.00
37764;BME280;23602;51.084;7.090;2023-05-19T00:25:05;100977.47;;;9.22;100.00
37764;BME280;23602;51.084;7.090;2023-05-19T00:27:30;100968.88;;;9.04;100.00
37764;BME280;23602;51.084;7.090;2023-05-19T00:29:55;100971.22;;;9.07;100.00
37764;BME280;23602;51.084;7.090;2023-05-19T00:32:22;100975.59;;;9.00;100.00
37764;BME280;23602;51.084;7.090;2023-05-19T00:34:48;100976.28;;;9.02;100.00
37764;BME280;23602;51.084;7.090;2023-05-19T00:37:13;100984.13;;;9.04;100.00
37764;BME280;23602;51.084;7.090;2023-05-19T00:39:39;100979.59;;;9.04;100.00
37764;BME280;23602;51.084;7.090;2023-05-19T00:42:04;100982.28;;;9.04;100.00
37764;BME280;23602;51.084;7.090;2023-05-19T00:44:30;100981.25;;;9.05;100.00
37764;BME280;23602;51.084;7.090;2023-05-19T00:46:55;100979.31;;;8.99;100.00
37764;BME280;23602;51.084;7.090;2023-05-19T00:49:21;100974.00;;;8.91;100.00
37764;BME280;23602;51.084;7.090;2023-05-19T00:51:46;100983.72;;;8.92;100.00
37764;BME280;23602;51.084;7.090;2023-05-19T00:54:12;100978.72;;;8.89;100.00
37764;BME280;23602;51.084;7.090;2023-05-19T00:56:38;100983.44;;;8.87;100.00
37764;BME280;23602;51.084;7.090;2023-05-19T00:59:03;100974.72;;;8.85;100.00
37764;BME280;23602;51.084;7.090;2023-05-19T01:01:29;100987.31;;;8.84;100.00
37764;BME280;23602;51.084;7.090;2023-05-19T01:03:56;100978.78;;;8.81;100.00
37764;BME280;23602;51.084;7.090;2023-05-19T01:06:22;100985.31;;;8.78;100.00
37764;BME280;23602;51.084;7.090;2023-05-19T01:08:49;100976.31;;;8.71;100.00
37764;BME280;23602;51.084;7.090;2023-05-19T01:11:15;100979.84;;;8.72;100.00
37764;BME280;23602;51.084;7.090;2023-05-19T01:13:40;100987.19;;;8.70;100.00
37764;BME280;23602;51.084;7.090;2023-05-19T01:16:10;100971.50;;;8.67;100.00
37764;BME280;23602;51.084;7.090;2023-05-19T01:18:51;100972.19;;;8.61;100.00
37764;BME280;23602;51.084;7.090;2023-05-19T01:29:14;100971.59;;;8.51;100.00
37764;BME280;23602;51.084;7.090;2023-05-19T01:31:41;100970.44;;;8.45;100.00
37764;BME280;23602;51.084;7.090;2023-05-19T01:34:06;100970.25;;;8.47;100.00
37764;BME280;23602;51.084;7.090;2023-05-19T01:36:33;100970.13;;;8.40;100.00
37764;BME280;23602;51.084;7.090;2023-05-19T01:39:00;100958.94;;;8.37;100.00
37764;BME280;23602;51.084;7.090;2023-05-19T01:41:26;100962.28;;;8.39;100.00
37764;BME280;23602;51.084;7.090;2023-05-19T01:43:52;100963.28;;;8.38;100.00
37764;BME280;23602;51.084;7.090;2023-05-19T01:46:18;100968.47;;;8.39;100.00
37764;BME280;23602;51.084;7.090;2023-05-19T01:48:43;100966.63;;;8.40;100.00
37764;BME280;23602;51.084;7.090;2023-05-19T01:51:09;100968.66;;;8.38;100.00
37764;BME280;23602;51.084;7.090;2023-05-19T01:53:34;100965.97;;;8.38;100.00
37764;BME280;23602;51.084;7.090;2023-05-19T01:56:00;100966.66;;;8.32;100.00
37764;BME280;23602;51.084;7.090;2023-05-19T02:05:58;100966.25;;;8.04;100.00
37764;BME280;23602;51.084;7.090;2023-05-19T02:08:37;100977.28;;;8.01;100.00
37764;BME280;23602;51.084;7.090;2023-05-19T02:11:08;100976.16;;;7.95;100.00
37764;BME280;23602;51.084;7.090;2023-05-19T02:13:35;100979.84;;;7.94;100.00
37764;BME280;23602;51.084;7.090;2023-05-19T02:16:02;100972.16;;;7.91;100.00
37764;BME280;23602;51.084;7.090;2023-05-19T02:18:28;100969.16;;;7.86;100.00
37764;BME280;23602;51.084;7.090;2023-05-19T02:20:54;100969.16;;;7.86;100.00
37764;BME280;23602;51.084;7.090;2023-05-19T02:23:19;100977.50;;;7.83;100.00
37764;BME280;23602;51.084;7.090;2023-05-19T02:25:45;100967.50;;;7.85;100.00
37764;BME280;23602;51.084;7.090;2023-05-19T02:28:10;100973.84;;;7.84;100.00
37764;BME280;23602;51.084;7.090;2023-05-19T02:30:35;100981.22;;;7.74;100.00
37764;BME280;23602;51.084;7.090;2023-05-19T02:33:01;100970.53;;;7.74;100.00
37764;BME280;23602;51.084;7.090;2023-05-19T02:35:26;100973.53;;;7.79;100.00
37764;BME280;23602;51.084;7.090;2023-05-19T02:37:52;100982.06;;;7.75;100.00
37764;BME280;23602;51.084;7.090;2023-05-19T02:40:18;100981.22;;;7.74;100.00
37764;BME280;23602;51.084;7.090;2023-05-19T02:42:43;100981.03;;;7.76;100.00
37764;BME280;23602;51.084;7.090;2023-05-19T02:45:09;100983.72;;;7.76;100.00
37764;BME280;23602;51.084;7.090;2023-05-19T02:47:34;100981.22;;;7.74;100.00
37764;BME280;23602;51.084;7.090;2023-05-19T02:50:00;100988.59;;;7.72;100.00
37764;BME280;23602;51.084;7.090;2023-05-19T02:52:25;100984.25;;;7.71;100.00
37764;BME280;23602;51.084;7.090;2023-05-19T02:54:50;100992.25;;;7.71;100.00
37764;BME280;23602;51.084;7.090;2023-05-19T02:57:16;100982.91;;;7.75;100.00
37764;BME280;23602;51.084;7.090;2023-05-19T02:59:41;100984.22;;;7.79;100.00
37764;BME280;23602;51.084;7.090;2023-05-19T03:02:07;100974.38;;;7.80;100.00
37764;BME280;23602;51.084;7.090;2023-05-19T03:04:32;100968.31;;;7.86;100.00
37764;BME280;23602;51.084;7.090;2023-05-19T03:07:05;100968.16;;;7.87;100.00
37764;BME280;23602;51.084;7.090;2023-05-19T03:09:30;100969.81;;;7.88;100.00
37764;BME280;23602;51.084;7.090;2023-05-19T03:11:56;100966.47;;;7.86;100.00
37764;BME280;23602;51.084;7.090;2023-05-19T03:14:21;100959.09;;;7.88;100.00
37764;BME280;23602;51.084;7.090;2023-05-19T03:16:48;100961.09;;;7.94;100.00
37764;BME280;23602;51.084;7.090;2023-05-19T03:19:13;100956.94;;;7.92;100.00
37764;BME280;23602;51.084;7.090;2023-05-19T03:21:39;100954.78;;;7.87;100.00
37764;BME280;23602;51.084;7.090;2023-05-19T03:24:04;100952.09;;;7.87;100.00
37764;BME280;23602;51.084;7.090;2023-05-19T03:26:30;100961.63;;;7.90;100.00
37764;BME280;23602;51.084;7.090;2023-05-19T03:28:56;100960.59;;;7.91;100.00
37764;BME280;23602;51.084;7.090;2023-05-19T03:31:21;100965.13;;;7.90;100.00
37764;BME280;23602;51.084;7.090;2023-05-19T03:33:47;100968.81;;;7.89;100.00
37764;BME280;23602;51.084;7.090;2023-05-19T03:36:12;100966.78;;;7.91;100.00
37764;BME280;23602;51.084;7.090;2023-05-19T03:38:37;100966.13;;;7.89;100.00
37764;BME280;23602;51.084;7.090;2023-05-19T03:41:03;100969.47;;;7.91;100.00
37764;BME280;23602;51.084;7.090;2023-05-19T03:43:28;100967.13;;;7.88;100.00
37764;BME280;23602;51.084;7.090;2023-05-19T03:45:53;100959.63;;;7.84;100.00
37764;BME280;23602;51.084;7.090;2023-05-19T03:48:18;100958.13;;;7.81;100.00
37764;BME280;23602;51.084;7.090;2023-05-19T03:50:44;100962.47;;;7.82;100.00
37764;BME280;23602;51.084;7.090;2023-05-19T03:53:09;100966.16;;;7.81;100.00
37764;BME280;23602;51.084;7.090;2023-05-19T03:55:35;100958.66;;;7.77;100.00
37764;BME280;23602;51.084;7.090;2023-05-19T03:58:01;100953.81;;;7.80;100.00
37764;BME280;23602;51.084;7.090;2023-05-19T04:00:26;100960.81;;;7.81;100.00
37764;BME280;23602;51.084;7.090;2023-05-19T04:02:51;100959.81;;;7.74;100.00
37764;BME280;23602;51.084;7.090;2023-05-19T04:05:17;100952.13;;;7.71;100.00
37764;BME280;23602;51.084;7.090;2023-05-19T04:07:42;100959.84;;;7.66;100.00
37764;BME280;23602;51.084;7.090;2023-05-19T04:10:09;100960.88;;;7.65;100.00
37764;BME280;23602;51.084;7.090;2023-05-19T04:12:34;100959.38;;;7.62;100.00
37764;BME280;23602;51.084;7.090;2023-05-19T04:14:59;100961.53;;;7.59;100.00
37764;BME280;23602;51.084;7.090;2023-05-19T04:17:25;100963.72;;;7.55;100.00
37764;BME280;23602;51.084;7.090;2023-05-19T04:19:51;100968.25;;;7.55;100.00
37764;BME280;23602;51.084;7.090;2023-05-19T04:22:17;100964.22;;;7.59;100.00
37764;BME280;23602;51.084;7.090;2023-05-19T04:24:42;100971.06;;;7.61;100.00
37764;BME280;23602;51.084;7.090;2023-05-19T04:27:07;100968.56;;;7.60;100.00
37764;BME280;23602;51.084;7.090;2023-05-19T04:29:36;100964.88;;;7.61;100.00
37764;BME280;23602;51.084;7.090;2023-05-19T04:32:01;100963.03;;;7.61;100.00
37764;BME280;23602;51.084;7.090;2023-05-19T04:34:30;100965.19;;;7.66;100.00
37764;BME280;23602;51.084;7.090;2023-05-19T04:36:55;100967.03;;;7.65;100.00
37764;BME280;23602;51.084;7.090;2023-05-19T04:39:21;100963.03;;;7.61;100.00
37764;BME280;23602;51.084;7.090;2023-05-19T04:41:46;100962.19;;;7.61;100.00
37764;BME280;23602;51.084;7.090;2023-05-19T04:44:12;100974.56;;;7.62;100.00
37764;BME280;23602;51.084;7.090;2023-05-19T04:46:37;100968.38;;;7.61;100.00
37764;BME280;23602;51.084;7.090;2023-05-19T04:49:03;100970.22;;;7.61;100.00
37764;BME280;23602;51.084;7.090;2023-05-19T04:51:28;100972.91;;;7.61;100.00
37764;BME280;23602;51.084;7.090;2023-05-19T04:53:55;100975.91;;;7.66;100.00
37764;BME280;23602;51.084;7.090;2023-05-19T04:56:20;100974.56;;;7.70;100.00
37764;BME280;23602;51.084;7.090;2023-05-19T04:58:46;100975.69;;;7.76;100.00
37764;BME280;23602;51.084;7.090;2023-05-19T05:01:11;100975.88;;;7.82;100.00
37764;BME280;23602;51.084;7.090;2023-05-19T05:03:40;100984.56;;;7.84;100.00
37764;BME280;23602;51.084;7.090;2023-05-19T05:06:05;100973.50;;;7.87;100.00
37764;BME280;23602;51.084;7.090;2023-05-19T05:08:30;100983.88;;;7.90;100.00
37764;BME280;23602;51.084;7.090;2023-05-19T05:10:56;100979.66;;;7.96;100.00
37764;BME280;23602;51.084;7.090;2023-05-19T05:13:22;100979.31;;;7.99;100.00
37764;BME280;23602;51.084;7.090;2023-05-19T05:15:47;100976.28;;;8.02;100.00
37764;BME280;23602;51.084;7.090;2023-05-19T05:18:13;100977.13;;;8.02;100.00
37764;BME280;23602;51.084;7.090;2023-05-19T05:20:39;100983.16;;;8.04;100.00
37764;BME280;23602;51.084;7.090;2023-05-19T05:23:05;100977.09;;;8.10;100.00
37764;BME280;23602;51.084;7.090;2023-05-19T05:25:30;100984.81;;;8.13;100.00
37764;BME280;23602;51.084;7.090;2023-05-19T05:27:56;100983.09;;;8.20;100.00
37764;BME280;23602;51.084;7.090;2023-05-19T05:30:22;100978.22;;;8.24;100.00
37764;BME280;23602;51.084;7.090;2023-05-19T05:32:48;100981.22;;;8.29;100.00
37764;BME280;23602;51.084;7.090;2023-05-19T05:35:13;100981.91;;;8.31;100.00
37764;BME280;23602;51.084;7.090;2023-05-19T05:37:39;100986.41;;;8.39;100.00
37764;BME280;23602;51.084;7.090;2023-05-19T05:40:04;100985.69;;;8.45;100.00
37764;BME280;23602;51.084;7.090;2023-05-19T05:42:31;100987.66;;;8.51;100.00
37764;BME280;23602;51.084;7.090;2023-05-19T05:44:56;100989.16;;;8.53;100.00
37764;BME280;23602;51.084;7.090;2023-05-19T05:47:21;100987.63;;;8.59;100.00
37764;BME280;23602;51.084;7.090;2023-05-19T05:49:46;100979.91;;;8.64;100.00
37764;BME280;23602;51.084;7.090;2023-05-19T05:52:12;100978.81;;;8.73;100.00
37764;BME280;23602;51.084;7.090;2023-05-19T05:54:39;100977.09;;;8.80;100.00
37764;BME280;23602;51.084;7.090;2023-05-19T05:57:05;100979.91;;;8.86;100.00
37764;BME280;23602;51.084;7.090;2023-05-19T05:59:30;100979.03;;;8.94;100.00
37764;BME280;23602;51.084;7.090;2023-05-19T06:01:58;100983.84;;;8.99;100.00
37764;BME280;23602;51.084;7.090;2023-05-19T06:04:23;100975.25;;;9.03;100.00
37764;BME280;23602;51.084;7.090;2023-05-19T06:06:49;100975.00;;;9.13;100.00
37764;BME280;23602;51.084;7.090;2023-05-19T06:09:16;100968.56;;;9.22;100.00
37764;BME280;23602;51.084;7.090;2023-05-19T06:11:41;100966.28;;;9.33;100.00
37764;BME280;23602;51.084;7.090;2023-05-19T06:14:07;100945.25;;;9.60;100.00
37764;BME280;23602;51.084;7.090;2023-05-19T06:16:32;100950.44;;;9.76;100.00
37764;BME280;23602;51.084;7.090;2023-05-19T06:18:58;100943.31;;;9.83;100.00
37764;BME280;23602;51.084;7.090;2023-05-19T06:21:24;100944.44;;;9.88;100.00
37764;BME280;23602;51.084;7.090;2023-05-19T06:23:49;100934.31;;;10.05;100.00
37764;BME280;23602;51.084;7.090;2023-05-19T06:26:15;100929.78;;;10.35;100.00
37764;BME280;23602;51.084;7.090;2023-05-19T06:28:41;100933.09;;;10.58;100.00
37764;BME280;23602;51.084;7.090;2023-05-19T06:31:06;100927.13;;;10.98;100.00
37764;BME280;23602;51.084;7.090;2023-05-19T06:33:32;100924.59;;;11.18;100.00
37764;BME280;23602;51.084;7.090;2023-05-19T06:35:58;100918.53;;;11.37;100.00
37764;BME280;23602;51.084;7.090;2023-05-19T06:38:23;100921.31;;;11.50;100.00
37764;BME280;23602;51.084;7.090;2023-05-19T06:40:48;100921.81;;;11.60;100.00
37764;BME280;23602;51.084;7.090;2023-05-19T06:43:14;100931.78;;;11.66;100.00
37764;BME280;23602;51.084;7.090;2023-05-19T06:45:39;100926.06;;;11.69;100.00
37764;BME280;23602;51.084;7.090;2023-05-19T06:48:05;100918.78;;;12.04;100.00
37764;BME280;23602;51.084;7.090;2023-05-19T06:50:30;100922.16;;;12.19;100.00
37764;BME280;23602;51.084;7.090;2023-05-19T06:52:56;100919.69;;;12.31;100.00
37764;BME280;23602;51.084;7.090;2023-05-19T06:55:22;100921.81;;;12.35;100.00
37764;BME280;23602;51.084;7.090;2023-05-19T06:57:47;100916.44;;;12.48;100.00
37764;BME280;23602;51.084;7.090;2023-05-19T07:00:13;100927.25;;;12.61;100.00
37764;BME280;23602;51.084;7.090;2023-05-19T07:02:40;100932.91;;;12.73;100.00
37764;BME280;23602;51.084;7.090;2023-05-19T07:05:06;100922.97;;;12.80;100.00
37764;BME280;23602;51.084;7.090;2023-05-19T07:07:33;100927.75;;;12.91;100.00
37764;BME280;23602;51.084;7.090;2023-05-19T07:09:58;100929.00;;;13.02;100.00
37764;BME280;23602;51.084;7.090;2023-05-19T07:12:24;100922.41;;;13.17;100.00
37764;BME280;23602;51.084;7.090;2023-05-19T07:14:50;100919.69;;;13.44;100.00
37764;BME280;23602;51.084;7.090;2023-05-19T07:17:15;100917.38;;;13.60;100.00
37764;BME280;23602;51.084;7.090;2023-05-19T07:19:41;100917.50;;;13.91;100.00
37764;BME280;23602;51.084;7.090;2023-05-19T07:22:06;100911.00;;;14.12;100.00
37764;BME280;23602;51.084;7.090;2023-05-19T07:24:31;100913.22;;;14.35;100.00
37764;BME280;23602;51.084;7.090;2023-05-19T07:26:57;100916.84;;;14.60;100.00
37764;BME280;23602;51.084;7.090;2023-05-19T07:29:22;100916.63;;;14.62;100.00
37764;BME280;23602;51.084;7.090;2023-05-19T07:31:47;100909.59;;;14.54;92.54
37764;BME280;23602;51.084;7.090;2023-05-19T07:34:17;100912.44;;;14.66;84.17
37764;BME280;23602;51.084;7.090;2023-05-19T07:36:43;100914.06;;;14.98;100.00
37764;BME280;23602;51.084;7.090;2023-05-19T07:39:08;100914.16;;;15.16;100.00
37764;BME280;23602;51.084;7.090;2023-05-19T07:41:34;100918.41;;;15.05;80.64
37764;BME280;23602;51.084;7.090;2023-05-19T07:43:59;100910.25;;;15.12;92.23
37764;BME280;23602;51.084;7.090;2023-05-19T07:46:25;100904.56;;;15.38;100.00
37764;BME280;23602;51.084;7.090;2023-05-19T07:48:50;100906.16;;;15.52;89.04
37764;BME280;23602;51.084;7.090;2023-05-19T07:51:18;100904.53;;;15.69;92.98
37764;BME280;23602;51.084;7.090;2023-05-19T07:53:43;100908.59;;;15.97;100.00
37764;BME280;23602;51.084;7.090;2023-05-19T07:56:08;100903.56;;;16.00;84.48
37764;BME280;23602;51.084;7.090;2023-05-19T07:58:34;100904.69;;;16.11;75.52
37764;BME280;23602;51.084;7.090;2023-05-19T08:00:59;100900.44;;;16.33;91.85
37764;BME280;23602;51.084;7.090;2023-05-19T08:03:25;100903.81;;;16.47;97.39
37764;BME280;23602;51.084;7.090;2023-05-19T08:05:51;100887.00;;;16.38;71.30
37764;BME280;23602;51.084;7.090;2023-05-19T08:08:17;100892.38;;;16.74;100.00
37764;BME280;23602;51.084;7.090;2023-05-19T08:10:43;100884.19;;;16.63;77.08
37764;BME280;23602;51.084;7.090;2023-05-19T08:13:09;100879.31;;;16.83;78.48
37764;BME280;23602;51.084;7.090;2023-05-19T08:15:34;100878.34;;;16.89;68.11
37764;BME280;23602;51.084;7.090;2023-05-19T08:18:00;100885.25;;;17.15;81.02
37764;BME280;23602;51.084;7.090;2023-05-19T08:20:26;100882.06;;;17.18;70.81
37764;BME280;23602;51.084;7.090;2023-05-19T08:22:52;100879.50;;;16.70;64.52
37764;BME280;23602;51.084;7.090;2023-05-19T08:25:17;100878.69;;;16.81;70.95
37764;BME280;23602;51.084;7.090;2023-05-19T08:27:44;100878.75;;;17.27;93.27
37764;BME280;23602;51.084;7.090;2023-05-19T08:30:10;100871.09;;;17.36;87.56
37764;BME280;23602;51.084;7.090;2023-05-19T08:32:35;100872.72;;;17.14;63.46
37764;BME280;23602;51.084;7.090;2023-05-19T08:35:02;100868.56;;;16.88;68.74
37764;BME280;23602;51.084;7.090;2023-05-19T08:37:27;100872.28;;;16.45;64.78
37764;BME280;23602;51.084;7.090;2023-05-19T08:39:52;100865.75;;;16.35;63.83
37764;BME280;23602;51.084;7.090;2023-05-19T08:42:18;100857.22;;;16.50;65.70
37764;BME280;23602;51.084;7.090;2023-05-19T08:44:43;100854.56;;;16.61;63.73
37764;BME280;23602;51.084;7.090;2023-05-19T08:47:09;100858.56;;;17.00;67.20
37764;BME280;23602;51.084;7.090;2023-05-19T08:49:48;100848.19;;;17.43;67.14
37764;BME280;23602;51.084;7.090;2023-05-19T08:54:52;100848.84;;;17.97;89.44
37764;BME280;23602;51.084;7.090;2023-05-19T08:57:18;100845.22;;;18.08;68.96
37764;BME280;23602;51.084;7.090;2023-05-19T08:59:45;100843.03;;;17.93;55.71
37764;BME280;23602;51.084;7.090;2023-05-19T09:02:13;100840.78;;;17.90;64.88
37764;BME280;23602;51.084;7.090;2023-05-19T09:04:38;100846.41;;;17.49;63.54
37764;BME280;23602;51.084;7.090;2023-05-19T09:07:04;100834.00;;;17.41;70.01
37764;BME280;23602;51.084;7.090;2023-05-19T09:09:30;100836.97;;;17.63;67.08
37764;BME280;23602;51.084;7.090;2023-05-19T09:11:55;100839.28;;;17.83;68.44
37764;BME280;23602;51.084;7.090;2023-05-19T09:14:21;100837.66;;;17.70;54.16
37764;BME280;23602;51.084;7.090;2023-05-19T09:16:47;100834.50;;;18.01;56.23
37764;BME280;23602;51.084;7.090;2023-05-19T09:19:14;100835.50;;;18.52;66.31
37764;BME280;23602;51.084;7.090;2023-05-19T09:21:40;100831.50;;;18.71;67.95
37764;BME280;23602;51.084;7.090;2023-05-19T09:24:05;100827.56;;;18.22;54.61
37764;BME280;23602;51.084;7.090;2023-05-19T09:26:38;100823.63;;;18.01;69.01
37764;BME280;23602;51.084;7.090;2023-05-19T09:29:10;100830.56;;;17.69;64.21
37764;BME280;23602;51.084;7.090;2023-05-19T09:31:36;100826.06;;;17.40;59.66
37764;BME280;23602;51.084;7.090;2023-05-19T09:34:02;100825.03;;;17.41;82.48
37764;BME280;23602;51.084;7.090;2023-05-19T09:36:28;100816.41;;;17.44;55.88
37764;BME280;23602;51.084;7.090;2023-05-19T09:38:53;100813.47;;;17.97;67.56
37764;BME280;23602;51.084;7.090;2023-05-19T09:41:19;100813.16;;;18.50;65.61
37764;BME280;23602;51.084;7.090;2023-05-19T09:43:48;100810.03;;;18.74;54.97
37764;BME280;23602;51.084;7.090;2023-05-19T09:46:18;100810.28;;;19.06;59.25
37764;BME280;23602;51.084;7.090;2023-05-19T09:48:50;100806.16;;;18.87;51.02
37764;BME280;23602;51.084;7.090;2023-05-19T09:51:20;100803.34;;;19.15;53.15
37764;BME280;23602;51.084;7.090;2023-05-19T09:53:46;100800.44;;;19.22;57.75
37764;BME280;23602;51.084;7.090;2023-05-19T09:56:12;100797.03;;;19.31;56.48
37764;BME280;23602;51.084;7.090;2023-05-19T09:58:40;100804.19;;;19.76;59.71
37764;BME280;23602;51.084;7.090;2023-05-19T10:01:05;100794.09;;;19.00;50.70
37764;BME280;23602;51.084;7.090;2023-05-19T10:03:32;100797.34;;;19.35;56.18
37764;BME280;23602;51.084;7.090;2023-05-19T10:05:57;100799.56;;;19.76;50.31
37764;BME280;23602;51.084;7.090;2023-05-19T10:08:23;100805.47;;;19.90;51.64
37764;BME280;23602;51.084;7.090;2023-05-19T10:10:51;100801.47;;;19.97;45.38
37764;BME280;23602;51.084;7.090;2023-05-19T10:13:16;100799.09;;;20.06;46.53
37764;BME280;23602;51.084;7.090;2023-05-19T10:15:42;100794.69;;;20.00;46.35
37764;BME280;23602;51.084;7.090;2023-05-19T10:18:09;100790.13;;;19.62;44.55
37764;BME280;23602;51.084;7.090;2023-05-19T10:20:35;100791.75;;;19.63;48.02
37764;BME280;23602;51.084;7.090;2023-05-19T10:23:01;100800.16;;;20.00;48.99
37764;BME280;23602;51.084;7.090;2023-05-19T10:25:27;100796.94;;;20.30;50.14
37764;BME280;23602;51.084;7.090;2023-05-19T10:28:00;100788.88;;;20.18;47.29
37764;BME280;23602;51.084;7.090;2023-05-19T10:30:35;100790.75;;;20.39;51.71
37764;BME280;23602;51.084;7.090;2023-05-19T10:33:02;100792.56;;;20.55;57.67
37764;BME280;23602;51.084;7.090;2023-05-19T10:46:03;100768.66;;;19.11;54.40
37764;BME280;23602;51.084;7.090;2023-05-19T10:48:29;100781.72;;;19.09;65.08
37764;BME280;23602;51.084;7.090;2023-05-19T10:50:57;100777.56;;;19.23;55.05
37764;BME280;23602;51.084;7.090;2023-05-19T10:53:26;100770.25;;;19.45;51.76
37764;BME280;23602;51.084;7.090;2023-05-19T10:55:55;100775.47;;;19.68;58.60
37764;BME280;23602;51.084;7.090;2023-05-19T10:58:36;100770.84;;;19.69;52.63
37764;BME280;23602;51.084;7.090;2023-05-19T11:01:05;100777.34;;;19.63;51.33
37764;BME280;23602;51.084;7.090;2023-05-19T11:03:35;100780.00;;;19.58;53.21
37764;BME280;23602;51.084;7.090;2023-05-19T11:08:51;100766.13;;;19.42;56.08
37764;BME280;23602;51.084;7.090;2023-05-19T11:11:17;100766.38;;;19.03;47.52
37764;BME280;23602;51.084;7.090;2023-05-19T11:13:46;100763.06;;;19.01;56.16
37764;BME280;23602;51.084;7.090;2023-05-19T11:16:12;100765.53;;;19.02;66.70
37764;BME280;23602;51.084;7.090;2023-05-19T11:18:39;100770.09;;;18.80;52.68
37764;BME280;23602;51.084;7.090;2023-05-19T11:21:04;100765.81;;;18.67;53.78
37764;BME280;23602;51.084;7.090;2023-05-19T11:23:36;100769.50;;;18.61;58.84
37764;BME280;23602;51.084;7.090;2023-05-19T11:26:02;100770.75;;;18.87;60.33
37764;BME280;23602;51.084;7.090;2023-05-19T11:28:27;100765.13;;;19.10;55.80
37764;BME280;23602;51.084;7.090;2023-05-19T11:30:54;100764.91;;;19.50;62.94
37764;BME280;23602;51.084;7.090;2023-05-19T11:33:21;100754.56;;;19.52;51.97
37764;BME280;23602;51.084;7.090;2023-05-19T11:35:51;100758.81;;;19.65;57.09
37764;BME280;23602;51.084;7.090;2023-05-19T11:38:17;100749.66;;;19.76;61.52
37764;BME280;23602;51.084;7.090;2023-05-19T11:40:43;100743.19;;;19.82;51.97
37764;BME280;23602;51.084;7.090;2023-05-19T11:43:09;100748.97;;;20.12;56.31
37764;BME280;23602;51.084;7.090;2023-05-19T11:45:34;100745.97;;;20.35;57.27
37764;BME280;23602;51.084;7.090;2023-05-19T11:48:00;100744.97;;;20.46;53.06
37764;BME280;23602;51.084;7.090;2023-05-19T11:50:26;100736.44;;;20.69;55.38
37764;BME280;23602;51.084;7.090;2023-05-19T11:52:52;100744.34;;;21.08;56.40
37764;BME280;23602;51.084;7.090;2023-05-19T11:55:17;100735.63;;;21.11;49.85
37764;BME280;23602;51.084;7.090;2023-05-19T11:58:01;100738.91;;;21.13;47.45
37764;BME280;23602;51.084;7.090;2023-05-19T12:00:27;100738.34;;;21.06;44.72
37764;BME280;23602;51.084;7.090;2023-05-19T12:02:54;100732.88;;;21.06;45.83
37764;BME280;23602;51.084;7.090;2023-05-19T12:05:20;100719.66;;;21.39;52.46
37764;BME280;23602;51.084;7.090;2023-05-19T12:07:46;100719.09;;;21.32;45.46
37764;BME280;23602;51.084;7.090;2023-05-19T12:10:13;100722.06;;;21.31;42.42
37764;BME280;23602;51.084;7.090;2023-05-19T12:12:39;100704.03;;;21.30;42.85
37764;BME280;23602;51.084;7.090;2023-05-19T12:15:04;100712.09;;;21.62;48.76
37764;BME280;23602;51.084;7.090;2023-05-19T12:17:30;100709.94;;;21.79;43.17
37764;BME280;23602;51.084;7.090;2023-05-19T12:19:56;100711.09;;;21.88;45.85
37764;BME280;23602;51.084;7.090;2023-05-19T12:22:21;100702.00;;;21.77;42.98
37764;BME280;23602;51.084;7.090;2023-05-19T12:24:47;100702.28;;;21.71;39.44
37764;BME280;23602;51.084;7.090;2023-05-19T12:27:17;100715.81;;;22.13;50.60
37764;BME280;23602;51.084;7.090;2023-05-19T12:29:47;100697.44;;;21.93;41.46
37764;BME280;23602;51.084;7.090;2023-05-19T12:32:12;100705.81;;;21.71;43.60
37764;BME280;23602;51.084;7.090;2023-05-19T12:34:38;100700.16;;;21.26;41.56
37764;BME280;23602;51.084;7.090;2023-05-19T12:37:04;100696.69;;;21.35;45.11
37764;BME280;23602;51.084;7.090;2023-05-19T12:39:29;100681.69;;;21.48;45.30
37764;BME280;23602;51.084;7.090;2023-05-19T12:42:28;100684.75;;;21.67;45.84
37764;BME280;23602;51.084;7.090;2023-05-19T12:44:47;100682.38;;;21.95;45.84
37764;BME280;23602;51.084;7.090;2023-05-19T12:47:14;100690.69;;;21.43;39.35
37764;BME280;23602;51.084;7.090;2023-05-19T12:49:59;100683.81;;;21.36;38.71
37764;BME280;23602;51.084;7.090;2023-05-19T12:52:25;100682.81;;;21.62;45.78
37764;BME280;23602;51.084;7.090;2023-05-19T12:54:58;100681.69;;;21.43;39.15
37764;BME280;23602;51.084;7.090;2023-05-19T12:57:24;100688.84;;;21.64;43.67
37764;BME280;23602;51.084;7.090;2023-05-19T12:59:49;100686.50;;;21.98;46.59
37764;BME280;23602;51.084;7.090;2023-05-19T13:02:15;100681.56;;;22.05;47.12
37764;BME280;23602;51.084;7.090;2023-05-19T13:04:41;100674.75;;;22.23;43.85
37764;BME280;23602;51.084;7.090;2023-05-19T13:07:07;100674.19;;;22.31;48.49
37764;BME280;23602;51.084;7.090;2023-05-19T13:09:32;100682.16;;;21.30;39.69
37764;BME280;23602;51.084;7.090;2023-05-19T13:12:00;100678.50;;;20.67;42.05
37764;BME280;23602;51.084;7.090;2023-05-19T13:14:25;100679.81;;;20.60;51.38